sensor_id;sensor_type;location;lat;lon;timestamp;pressure;altitude;pressure_sealevel;temperature;humidity
5522;BME280;2783;48.730;8.006;2023-03-25T00:00:14;99570.88;;;11.70;97.61
5522;BME280;2783;48.730;8.006;2023-03-25T00:02:42;99570.28;;;11.64;100.00
5522;BME280;2783;48.730;8.006;2023-03-25T00:05:09;99574.44;;;11.71;100.00
5522;BME280;2783;48.730;8.006;2023-03-25T00:07:34;99565.63;;;11.69;100.00
5522;BME280;2783;48.730;8.006;2023-03-25T00:10:00;99566.44;;;11.71;100.00
5522;BME280;2783;48.730;8.006;2023-03-25T00:12:26;99566.84;;;11.60;100.00
5522;BME280;2783;48.730;8.006;2023-03-25T00:14:51;99569.41;;;11.63;100.00
5522;BME280;2783;48.730;8.006;2023-03-25T00:17:20;99575.88;;;11.58;100.00
5522;BME280;2783;48.730;8.006;2023-03-25T00:19:45;99570.72;;;11.53;98.67
5522;BME280;2783;48.730;8.006;2023-03-25T00:22:14;99567.88;;;11.58;97.08
5522;BME280;2783;48.730;8.006;2023-03-25T00:24:39;99560.59;;;11.61;96.25
5522;BME280;2783;48.730;8.006;2023-03-25T00:27:05;99562.34;;;11.62;94.90
5522;BME280;2783;48.730;8.006;2023-03-25T00:29:30;99549.22;;;11.58;94.05
5522;BME280;2783;48.730;8.006;2023-03-25T00:31:55;99556.13;;;11.62;92.57
5522;BME280;2783;48.730;8.006;2023-03-25T00:34:21;99554.47;;;11.59;90.29
5522;BME280;2783;48.730;8.006;2023-03-25T00:36:46;99552.44;;;11.66;89.62
5522;BME280;2783;48.730;8.006;2023-03-25T00:39:11;99546.03;;;11.70;88.81
5522;BME280;2783;48.730;8.006;2023-03-25T00:41:37;99560.44;;;11.66;88.41
5522;BME280;2783;48.730;8.006;2023-03-25T00:44:06;99556.81;;;11.67;88.63
5522;BME280;2783;48.730;8.006;2023-03-25T00:46:31;99549.34;;;11.75;88.80
5522;BME280;2783;48.730;8.006;2023-03-25T00:48:59;99544.69;;;11.80;89.15
5522;BME280;2783;48.730;8.006;2023-03-25T00:51:25;99540.44;;;11.76;88.03
5522;BME280;2783;48.730;8.006;2023-03-25T00:53:54;99534.56;;;11.68;87.04
5522;BME280;2783;48.730;8.006;2023-03-25T00:56:20;99523.81;;;11.71;87.47
5522;BME280;2783;48.730;8.006;2023-03-25T00:58:46;99523.00;;;11.69;86.63
5522;BME280;2783;48.730;8.006;2023-03-25T01:01:12;99527.53;;;11.67;85.56
5522;BME280;2783;48.730;8.006;2023-03-25T01:03:38;99527.25;;;11.73;85.21
5522;BME280;2783;48.730;8.006;2023-03-25T01:06:13;99516.56;;;11.73;83.79
5522;BME280;2783;48.730;8.006;2023-03-25T01:08:39;99518.34;;;11.74;82.71
5522;BME280;2783;48.730;8.006;2023-03-25T01:11:05;99511.13;;;11.76;82.83
5522;BME280;2783;48.730;8.006;2023-03-25T01:13:32;99502.94;;;11.80;83.04
5522;BME280;2783;48.730;8.006;2023-03-25T01:15:57;99508.19;;;11.82;82.90
5522;BME280;2783;48.730;8.006;2023-03-25T01:18:22;99501.78;;;11.86;83.63
5522;BME280;2783;48.730;8.006;2023-03-25T01:20:48;99515.88;;;11.88;83.47
5522;BME280;2783;48.730;8.006;2023-03-25T01:23:13;99514.03;;;11.90;83.48
5522;BME280;2783;48.730;8.006;2023-03-25T01:25:39;99513.22;;;11.88;83.29
5522;BME280;2783;48.730;8.006;2023-03-25T01:28:04;99507.75;;;11.91;84.25
5522;BME280;2783;48.730;8.006;2023-03-25T01:30:30;99508.41;;;11.96;84.15
5522;BME280;2783;48.730;8.006;2023-03-25T01:32:55;99526.16;;;11.97;84.98
5522;BME280;2783;48.730;8.006;2023-03-25T01:35:21;99559.00;;;11.98;85.92
5522;BME280;2783;48.730;8.006;2023-03-25T01:37:47;99611.75;;;11.89;87.99
5522;BME280;2783;48.730;8.006;2023-03-25T01:40:19;99607.06;;;11.76;91.50
5522;BME280;2783;48.730;8.006;2023-03-25T01:42:45;99608.13;;;11.09;94.79
5522;BME280;2783;48.730;8.006;2023-03-25T01:47:45;99605.41;;;10.45;98.37
5522;BME280;2783;48.730;8.006;2023-03-25T01:50:12;99599.56;;;10.36;100.00
5522;BME280;2783;48.730;8.006;2023-03-25T01:52:38;99601.53;;;10.31;100.00
5522;BME280;2783;48.730;8.006;2023-03-25T01:55:05;99601.22;;;10.15;100.00
5522;BME280;2783;48.730;8.006;2023-03-25T01:57:31;99570.63;;;10.04;100.00
5522;BME280;2783;48.730;8.006;2023-03-25T01:59:56;99566.72;;;9.91;100.00
5522;BME280;2783;48.730;8.006;2023-03-25T02:02:22;99563.81;;;9.97;100.00
5522;BME280;2783;48.730;8.006;2023-03-25T02:05:04;99567.53;;;9.93;100.00
5522;BME280;2783;48.730;8.006;2023-03-25T02:07:34;99555.91;;;9.95;100.00
5522;BME280;2783;48.730;8.006;2023-03-25T02:10:03;99560.19;;;9.99;100.00
5522;BME280;2783;48.730;8.006;2023-03-25T02:12:30;99543.44;;;9.97;100.00
5522;BME280;2783;48.730;8.006;2023-03-25T02:14:56;99547.59;;;10.04;100.00
5522;BME280;2783;48.730;8.006;2023-03-25T02:25:12;99530.72;;;10.05;100.00
5522;BME280;2783;48.730;8.006;2023-03-25T02:30:21;99529.78;;;10.08;100.00
5522;BME280;2783;48.730;8.006;2023-03-25T02:45:54;99553.28;;;10.18;96.08
5522;BME280;2783;48.730;8.006;2023-03-25T02:48:41;99571.72;;;10.23;96.11
5522;BME280;2783;48.730;8.006;2023-03-25T02:51:11;99570.72;;;10.25;96.34
5522;BME280;2783;48.730;8.006;2023-03-25T02:53:38;99568.88;;;10.27;95.61
5522;BME280;2783;48.730;8.006;2023-03-25T02:56:07;99577.66;;;10.29;96.58
5522;BME280;2783;48.730;8.006;2023-03-25T02:58:34;99566.09;;;10.30;96.00
5522;BME280;2783;48.730;8.006;2023-03-25T03:01:02;99571.34;;;10.32;96.51
5522;BME280;2783;48.730;8.006;2023-03-25T03:03:27;99559.84;;;10.31;94.77
5522;BME280;2783;48.730;8.006;2023-03-25T03:05:55;99574.06;;;10.30;95.32
5522;BME280;2783;48.730;8.006;2023-03-25T03:11:18;99572.94;;;10.37;94.30
5522;BME280;2783;48.730;8.006;2023-03-25T03:14:07;99574.47;;;10.43;94.41
5522;BME280;2783;48.730;8.006;2023-03-25T03:21:55;99568.06;;;10.25;96.12
5522;BME280;2783;48.730;8.006;2023-03-25T03:26:57;99574.19;;;10.27;96.16
5522;BME280;2783;48.730;8.006;2023-03-25T03:29:35;99577.75;;;10.26;96.86
5522;BME280;2783;48.730;8.006;2023-03-25T03:32:07;99571.09;;;10.38;96.25
5522;BME280;2783;48.730;8.006;2023-03-25T03:34:36;99564.81;;;10.40;96.74
5522;BME280;2783;48.730;8.006;2023-03-25T03:37:09;99576.22;;;10.44;96.60
5522;BME280;2783;48.730;8.006;2023-03-25T03:39:36;99580.03;;;10.37;97.25
5522;BME280;2783;48.730;8.006;2023-03-25T03:42:05;99574.72;;;10.37;96.40
5522;BME280;2783;48.730;8.006;2023-03-25T03:44:33;99583.44;;;10.40;96.40
5522;BME280;2783;48.730;8.006;2023-03-25T03:47:03;99585.97;;;10.43;95.19
5522;BME280;2783;48.730;8.006;2023-03-25T03:49:35;99586.53;;;10.51;95.64
5522;BME280;2783;48.730;8.006;2023-03-25T03:52:06;99601.59;;;10.52;95.12
5522;BME280;2783;48.730;8.006;2023-03-25T03:54:36;99604.34;;;10.49;95.36
5522;BME280;2783;48.730;8.006;2023-03-25T03:57:04;99601.13;;;10.63;95.18
5522;BME280;2783;48.730;8.006;2023-03-25T03:59:37;99606.47;;;10.63;95.23
5522;BME280;2783;48.730;8.006;2023-03-25T04:02:07;99604.69;;;10.63;94.75
5522;BME280;2783;48.730;8.006;2023-03-25T04:04:36;99603.94;;;10.60;94.83
5522;BME280;2783;48.730;8.006;2023-03-25T04:09:36;99617.84;;;10.67;93.86
5522;BME280;2783;48.730;8.006;2023-03-25T04:12:15;99617.03;;;10.64;93.12
5522;BME280;2783;48.730;8.006;2023-03-25T04:14:41;99610.88;;;10.64;92.52
5522;BME280;2783;48.730;8.006;2023-03-25T04:17:07;99609.00;;;10.66;93.19
5522;BME280;2783;48.730;8.006;2023-03-25T04:19:33;99604.69;;;10.63;92.99
5522;BME280;2783;48.730;8.006;2023-03-25T04:21:59;99599.47;;;10.60;93.37
5522;BME280;2783;48.730;8.006;2023-03-25T04:24:26;99599.47;;;10.60;93.07
5522;BME280;2783;48.730;8.006;2023-03-25T04:26:58;99597.72;;;10.59;92.90
5522;BME280;2783;48.730;8.006;2023-03-25T04:29:27;99597.97;;;10.53;93.55
5522;BME280;2783;48.730;8.006;2023-03-25T04:31:53;99587.91;;;10.61;92.80
5522;BME280;2783;48.730;8.006;2023-03-25T04:34:20;99592.19;;;10.66;93.01
5522;BME280;2783;48.730;8.006;2023-03-25T04:36:45;99586.94;;;10.64;92.09
5522;BME280;2783;48.730;8.006;2023-03-25T04:39:14;99597.50;;;10.66;90.77
5522;BME280;2783;48.730;8.006;2023-03-25T04:41:41;99599.84;;;10.73;91.40
5522;BME280;2783;48.730;8.006;2023-03-25T04:44:08;99595.16;;;10.80;91.46
5522;BME280;2783;48.730;8.006;2023-03-25T04:46:33;99591.69;;;10.78;89.74
5522;BME280;2783;48.730;8.006;2023-03-25T04:49:00;99595.16;;;10.80;89.85
5522;BME280;2783;48.730;8.006;2023-03-25T04:51:27;99590.78;;;10.79;89.76
5522;BME280;2783;48.730;8.006;2023-03-25T04:53:54;99593.56;;;10.76;90.16
5522;BME280;2783;48.730;8.006;2023-03-25T04:56:19;99592.69;;;10.75;89.70
5522;BME280;2783;48.730;8.006;2023-03-25T04:58:45;99591.81;;;10.75;89.77
5522;BME280;2783;48.730;8.006;2023-03-25T05:01:14;99591.69;;;10.78;90.02
5522;BME280;2783;48.730;8.006;2023-03-25T05:03:43;99582.78;;;10.79;89.62
5522;BME280;2783;48.730;8.006;2023-03-25T05:06:08;99598.06;;;10.74;88.92
5522;BME280;2783;48.730;8.006;2023-03-25T05:08:35;99591.00;;;10.73;89.00
5522;BME280;2783;48.730;8.006;2023-03-25T05:11:00;99595.41;;;10.74;90.28
5522;BME280;2783;48.730;8.006;2023-03-25T05:13:27;99604.19;;;10.76;91.11
5522;BME280;2783;48.730;8.006;2023-03-25T05:15:52;99600.84;;;10.71;91.73
5522;BME280;2783;48.730;8.006;2023-03-25T05:18:17;99614.16;;;10.71;92.53
5522;BME280;2783;48.730;8.006;2023-03-25T05:20:44;99611.38;;;10.74;92.88
5522;BME280;2783;48.730;8.006;2023-03-25T05:23:11;99610.75;;;10.67;93.64
5522;BME280;2783;48.730;8.006;2023-03-25T05:25:42;99621.19;;;10.72;93.55
5522;BME280;2783;48.730;8.006;2023-03-25T05:28:08;99617.84;;;10.67;95.39
5522;BME280;2783;48.730;8.006;2023-03-25T05:30:38;99616.28;;;10.61;96.97
5522;BME280;2783;48.730;8.006;2023-03-25T05:33:05;99614.81;;;10.54;97.27
5522;BME280;2783;48.730;8.006;2023-03-25T05:35:31;99613.06;;;10.53;97.80
5522;BME280;2783;48.730;8.006;2023-03-25T05:37:56;99614.19;;;10.47;98.77
5522;BME280;2783;48.730;8.006;2023-03-25T05:40:21;99608.25;;;10.41;98.38
5522;BME280;2783;48.730;8.006;2023-03-25T05:42:47;99614.72;;;10.34;98.57
5522;BME280;2783;48.730;8.006;2023-03-25T05:45:13;99621.00;;;10.31;98.66
5522;BME280;2783;48.730;8.006;2023-03-25T05:47:39;99615.59;;;10.33;98.01
5522;BME280;2783;48.730;8.006;2023-03-25T05:50:05;99618.25;;;10.34;98.02
5522;BME280;2783;48.730;8.006;2023-03-25T05:52:30;99625.53;;;10.29;96.88
5522;BME280;2783;48.730;8.006;2023-03-25T05:54:56;99613.88;;;10.32;97.18
5522;BME280;2783;48.730;8.006;2023-03-25T05:57:21;99620.84;;;10.36;96.14
5522;BME280;2783;48.730;8.006;2023-03-25T05:59:46;99619.84;;;10.38;96.51
5522;BME280;2783;48.730;8.006;2023-03-25T06:02:15;99626.09;;;10.37;96.39
5522;BME280;2783;48.730;8.006;2023-03-25T06:04:41;99622.69;;;10.34;95.15
5522;BME280;2783;48.730;8.006;2023-03-25T06:07:10;99628.75;;;10.37;95.79
5522;BME280;2783;48.730;8.006;2023-03-25T06:09:44;99621.47;;;10.42;94.78
5522;BME280;2783;48.730;8.006;2023-03-25T06:12:10;99624.81;;;10.47;96.07
5522;BME280;2783;48.730;8.006;2023-03-25T06:14:36;99623.31;;;10.40;95.75
5522;BME280;2783;48.730;8.006;2023-03-25T06:17:01;99621.34;;;10.45;96.19
5522;BME280;2783;48.730;8.006;2023-03-25T06:19:26;99622.03;;;10.27;97.71
5522;BME280;2783;48.730;8.006;2023-03-25T06:21:51;99633.69;;;10.23;98.67
5522;BME280;2783;48.730;8.006;2023-03-25T06:24:17;99615.09;;;10.23;98.36
5522;BME280;2783;48.730;8.006;2023-03-25T06:26:42;99634.34;;;10.30;98.11
5522;BME280;2783;48.730;8.006;2023-03-25T06:29:08;99617.47;;;10.31;97.72
5522;BME280;2783;48.730;8.006;2023-03-25T06:31:33;99626.19;;;10.57;97.38
5522;BME280;2783;48.730;8.006;2023-03-25T06:33:58;99620.44;;;11.33;90.93
5522;BME280;2783;48.730;8.006;2023-03-25T06:36:25;99628.78;;;11.24;89.65
5522;BME280;2783;48.730;8.006;2023-03-25T06:38:51;99626.59;;;10.92;90.76
5522;BME280;2783;48.730;8.006;2023-03-25T06:41:17;99611.53;;;10.91;92.22
5522;BME280;2783;48.730;8.006;2023-03-25T06:43:46;99610.84;;;11.07;91.79
5522;BME280;2783;48.730;8.006;2023-03-25T06:46:11;99609.06;;;11.71;88.10
5522;BME280;2783;48.730;8.006;2023-03-25T06:48:37;99605.47;;;11.50;86.14
5522;BME280;2783;48.730;8.006;2023-03-25T06:51:02;99606.56;;;11.46;88.26
5522;BME280;2783;48.730;8.006;2023-03-25T06:53:27;99609.41;;;11.62;90.91
5522;BME280;2783;48.730;8.006;2023-03-25T06:55:55;99604.28;;;12.36;86.63
5522;BME280;2783;48.730;8.006;2023-03-25T06:58:20;99591.88;;;12.72;80.29
5522;BME280;2783;48.730;8.006;2023-03-25T07:00:45;99600.03;;;12.69;80.55
5522;BME280;2783;48.730;8.006;2023-03-25T07:03:11;99605.00;;;13.48;76.71
5522;BME280;2783;48.730;8.006;2023-03-25T07:05:36;99601.22;;;13.69;75.01
5522;BME280;2783;48.730;8.006;2023-03-25T07:08:01;99599.44;;;13.70;75.62
5522;BME280;2783;48.730;8.006;2023-03-25T07:10:27;99604.75;;;15.00;70.19
5522;BME280;2783;48.730;8.006;2023-03-25T07:12:52;99603.16;;;14.96;66.72
5522;BME280;2783;48.730;8.006;2023-03-25T07:15:17;99615.56;;;14.35;72.21
5522;BME280;2783;48.730;8.006;2023-03-25T07:17:42;99617.16;;;15.17;69.27
5522;BME280;2783;48.730;8.006;2023-03-25T07:20:08;99612.38;;;15.82;66.17
5522;BME280;2783;48.730;8.006;2023-03-25T07:22:33;99612.19;;;15.86;63.46
5522;BME280;2783;48.730;8.006;2023-03-25T07:24:59;99616.28;;;15.32;65.51
5522;BME280;2783;48.730;8.006;2023-03-25T07:27:24;99613.19;;;14.93;65.96
5522;BME280;2783;48.730;8.006;2023-03-25T07:29:50;99611.06;;;13.86;70.95
5522;BME280;2783;48.730;8.006;2023-03-25T07:32:15;99618.47;;;12.92;76.96
5522;BME280;2783;48.730;8.006;2023-03-25T07:34:41;99600.25;;;12.46;80.39
5522;BME280;2783;48.730;8.006;2023-03-25T07:37:06;99579.88;;;12.07;81.70
5522;BME280;2783;48.730;8.006;2023-03-25T07:39:32;99609.16;;;12.08;83.29
5522;BME280;2783;48.730;8.006;2023-03-25T07:41:57;99606.50;;;11.88;85.11
5522;BME280;2783;48.730;8.006;2023-03-25T07:44:23;99615.72;;;11.81;86.40
5522;BME280;2783;48.730;8.006;2023-03-25T07:46:48;99623.44;;;11.67;88.68
5522;BME280;2783;48.730;8.006;2023-03-25T07:49:14;99618.19;;;11.44;90.94
5522;BME280;2783;48.730;8.006;2023-03-25T07:51:40;99633.63;;;11.14;94.27
5522;BME280;2783;48.730;8.006;2023-03-25T07:54:05;99638.09;;;11.14;95.83
5522;BME280;2783;48.730;8.006;2023-03-25T07:56:30;99634.13;;;11.02;97.68
5522;BME280;2783;48.730;8.006;2023-03-25T07:58:56;99632.72;;;10.94;98.47
5522;BME280;2783;48.730;8.006;2023-03-25T08:01:21;99638.00;;;10.95;100.00
5522;BME280;2783;48.730;8.006;2023-03-25T08:03:46;99634.50;;;10.93;100.00
5522;BME280;2783;48.730;8.006;2023-03-25T08:06:11;99637.13;;;10.95;100.00
5522;BME280;2783;48.730;8.006;2023-03-25T08:08:37;99632.28;;;11.04;100.00
5522;BME280;2783;48.730;8.006;2023-03-25T08:11:02;99633.72;;;11.13;100.00
5522;BME280;2783;48.730;8.006;2023-03-25T08:13:28;99622.72;;;11.20;100.00
5522;BME280;2783;48.730;8.006;2023-03-25T08:15:53;99627.22;;;11.20;100.00
5522;BME280;2783;48.730;8.006;2023-03-25T08:18:18;99634.56;;;11.35;100.00
5522;BME280;2783;48.730;8.006;2023-03-25T08:20:44;99635.25;;;11.40;100.00
5522;BME280;2783;48.730;8.006;2023-03-25T08:23:09;99634.63;;;11.33;100.00
5522;BME280;2783;48.730;8.006;2023-03-25T08:25:37;99623.09;;;11.33;100.00
5522;BME280;2783;48.730;8.006;2023-03-25T08:28:03;99635.84;;;11.46;100.00
5522;BME280;2783;48.730;8.006;2023-03-25T08:30:28;99624.38;;;11.44;100.00
5522;BME280;2783;48.730;8.006;2023-03-25T08:32:54;99623.91;;;11.55;100.00
5522;BME280;2783;48.730;8.006;2023-03-25T08:35:20;99626.47;;;11.58;100.00
5522;BME280;2783;48.730;8.006;2023-03-25T08:37:46;99611.81;;;11.48;100.00
5522;BME280;2783;48.730;8.006;2023-03-25T08:40:11;99614.19;;;11.54;100.00
5522;BME280;2783;48.730;8.006;2023-03-25T08:42:36;99595.84;;;11.48;100.00
5522;BME280;2783;48.730;8.006;2023-03-25T08:45:02;99598.47;;;11.69;100.00
5522;BME280;2783;48.730;8.006;2023-03-25T08:47:28;99596.84;;;11.85;100.00
5522;BME280;2783;48.730;8.006;2023-03-25T08:49:53;99601.91;;;11.91;100.00
5522;BME280;2783;48.730;8.006;2023-03-25T08:52:19;99601.69;;;11.96;100.00
5522;BME280;2783;48.730;8.006;2023-03-25T08:54:44;99605.97;;;12.00;100.00
5522;BME280;2783;48.730;8.006;2023-03-25T08:57:09;99598.19;;;12.14;100.00
5522;BME280;2783;48.730;8.006;2023-03-25T08:59:35;99603.53;;;12.14;99.76
5522;BME280;2783;48.730;8.006;2023-03-25T09:02:00;99599.72;;;12.20;99.04
5522;BME280;2783;48.730;8.006;2023-03-25T09:04:25;99610.63;;;12.34;99.19
5522;BME280;2783;48.730;8.006;2023-03-25T09:06:51;99596.94;;;12.41;98.42
5522;BME280;2783;48.730;8.006;2023-03-25T09:09:16;99593.06;;;12.48;97.23
5522;BME280;2783;48.730;8.006;2023-03-25T09:11:42;99589.03;;;12.58;96.49
5522;BME280;2783;48.730;8.006;2023-03-25T09:14:07;99589.13;;;12.74;96.04
5522;BME280;2783;48.730;8.006;2023-03-25T09:16:33;99575.38;;;13.00;95.27
5522;BME280;2783;48.730;8.006;2023-03-25T09:18:58;99591.34;;;13.01;92.81
5522;BME280;2783;48.730;8.006;2023-03-25T09:21:24;99599.31;;;13.03;90.99
5522;BME280;2783;48.730;8.006;2023-03-25T09:23:49;99597.50;;;13.03;91.27
5522;BME280;2783;48.730;8.006;2023-03-25T09:26:15;99600.97;;;13.05;91.29
5522;BME280;2783;48.730;8.006;2023-03-25T09:28:40;99599.00;;;13.09;90.22
5522;BME280;2783;48.730;8.006;2023-03-25T09:31:05;99599.25;;;13.04;89.60
5522;BME280;2783;48.730;8.006;2023-03-25T09:33:32;99591.47;;;12.98;87.54
5522;BME280;2783;48.730;8.006;2023-03-25T09:35:57;99595.78;;;13.02;88.54
5522;BME280;2783;48.730;8.006;2023-03-25T09:38:22;99605.97;;;13.11;87.48
5522;BME280;2783;48.730;8.006;2023-03-25T09:40:48;99607.56;;;12.97;85.97
5522;BME280;2783;48.730;8.006;2023-03-25T09:45:45;99602.00;;;13.20;85.54
5522;BME280;2783;48.730;8.006;2023-03-25T09:51:08;99618.56;;;13.09;83.53
5522;BME280;2783;48.730;8.006;2023-03-25T09:56:34;99638.69;;;12.79;84.18
5522;BME280;2783;48.730;8.006;2023-03-25T09:59:04;99629.16;;;12.74;84.88
5522;BME280;2783;48.730;8.006;2023-03-25T10:04:13;99651.06;;;13.53;86.88
5522;BME280;2783;48.730;8.006;2023-03-25T10:17:22;99655.09;;;13.96;81.07
5522;BME280;2783;48.730;8.006;2023-03-25T10:27:18;99656.81;;;14.31;72.90
5522;BME280;2783;48.730;8.006;2023-03-25T10:32:17;99648.59;;;14.51;71.29
5522;BME280;2783;48.730;8.006;2023-03-25T10:34:45;99642.19;;;14.53;71.10
5522;BME280;2783;48.730;8.006;2023-03-25T10:37:15;99648.50;;;14.52;69.35
5522;BME280;2783;48.730;8.006;2023-03-25T10:39:41;99645.78;;;14.37;68.10
5522;BME280;2783;48.730;8.006;2023-03-25T10:44:42;99626.25;;;14.35;67.56
5522;BME280;2783;48.730;8.006;2023-03-25T10:47:10;99628.28;;;14.47;69.46
5522;BME280;2783;48.730;8.006;2023-03-25T10:49:40;99639.75;;;14.49;68.43
5522;BME280;2783;48.730;8.006;2023-03-25T10:52:05;99625.94;;;14.41;67.82
5522;BME280;2783;48.730;8.006;2023-03-25T10:54:32;99629.09;;;14.32;68.22
5522;BME280;2783;48.730;8.006;2023-03-25T10:57:07;99644.03;;;14.19;67.98
5522;BME280;2783;48.730;8.006;2023-03-25T10:59:39;99653.41;;;14.10;72.44
5522;BME280;2783;48.730;8.006;2023-03-25T11:02:26;99639.03;;;14.13;74.36
5522;BME280;2783;48.730;8.006;2023-03-25T11:04:54;99642.66;;;14.93;73.69
5522;BME280;2783;48.730;8.006;2023-03-25T11:07:27;99645.84;;;14.99;69.28
5522;BME280;2783;48.730;8.006;2023-03-25T11:10:06;99653.81;;;14.85;69.27
5522;BME280;2783;48.730;8.006;2023-03-25T11:12:32;99660.00;;;14.70;70.50
5522;BME280;2783;48.730;8.006;2023-03-25T11:14:58;99648.34;;;14.71;70.45
5522;BME280;2783;48.730;8.006;2023-03-25T11:17:25;99647.56;;;14.85;68.70
5522;BME280;2783;48.730;8.006;2023-03-25T11:24:42;99650.44;;;14.66;65.41
5522;BME280;2783;48.730;8.006;2023-03-25T11:27:08;99656.72;;;14.65;67.21
5522;BME280;2783;48.730;8.006;2023-03-25T11:29:34;99643.84;;;14.72;68.09
5522;BME280;2783;48.730;8.006;2023-03-25T11:32:04;99641.69;;;14.78;67.43
5522;BME280;2783;48.730;8.006;2023-03-25T11:34:30;99658.59;;;14.63;66.89
5522;BME280;2783;48.730;8.006;2023-03-25T11:36:59;99686.75;;;14.55;70.68
5522;BME280;2783;48.730;8.006;2023-03-25T11:41:51;99683.44;;;13.47;80.16
5522;BME280;2783;48.730;8.006;2023-03-25T11:44:24;99672.94;;;13.26;81.72
5522;BME280;2783;48.730;8.006;2023-03-25T11:46:50;99669.72;;;14.56;84.39
5522;BME280;2783;48.730;8.006;2023-03-25T11:49:18;99671.78;;;15.45;79.72
5522;BME280;2783;48.730;8.006;2023-03-25T11:51:44;99668.84;;;16.53;78.62
5522;BME280;2783;48.730;8.006;2023-03-25T11:54:13;99667.81;;;17.10;70.28
5522;BME280;2783;48.730;8.006;2023-03-25T11:56:40;99665.28;;;17.35;68.19
5522;BME280;2783;48.730;8.006;2023-03-25T11:59:08;99660.50;;;17.26;68.64
5522;BME280;2783;48.730;8.006;2023-03-25T12:01:37;99667.91;;;16.54;68.00
5522;BME280;2783;48.730;8.006;2023-03-25T12:04:16;99673.22;;;16.26;68.62
5522;BME280;2783;48.730;8.006;2023-03-25T12:09:21;99672.66;;;15.15;69.82
5522;BME280;2783;48.730;8.006;2023-03-25T12:12:06;99674.56;;;14.97;70.10
5522;BME280;2783;48.730;8.006;2023-03-25T12:19:41;99671.94;;;14.80;73.61
5522;BME280;2783;48.730;8.006;2023-03-25T12:22:12;99666.06;;;14.89;72.20
5522;BME280;2783;48.730;8.006;2023-03-25T12:24:54;99665.19;;;15.35;74.62
5522;BME280;2783;48.730;8.006;2023-03-25T12:47:54;99630.31;;;19.25;53.21
5522;BME280;2783;48.730;8.006;2023-03-25T12:50:22;99631.13;;;18.41;52.09
5522;BME280;2783;48.730;8.006;2023-03-25T13:08:27;99626.09;;;15.62;61.96
5522;BME280;2783;48.730;8.006;2023-03-25T13:11:37;99618.94;;;15.47;66.35
5522;BME280;2783;48.730;8.006;2023-03-25T13:13:43;99615.59;;;15.73;66.07
5522;BME280;2783;48.730;8.006;2023-03-25T13:16:17;99615.47;;;16.89;65.38
5522;BME280;2783;48.730;8.006;2023-03-25T13:18:46;99614.78;;;17.79;59.39
5522;BME280;2783;48.730;8.006;2023-03-25T13:21:16;99613.44;;;18.36;54.82
5522;BME280;2783;48.730;8.006;2023-03-25T13:23:46;99606.75;;;18.67;55.72
5522;BME280;2783;48.730;8.006;2023-03-25T13:26:13;99611.19;;;18.56;52.28
5522;BME280;2783;48.730;8.006;2023-03-25T13:28:43;99609.63;;;18.89;55.34
5522;BME280;2783;48.730;8.006;2023-03-25T13:31:21;99598.19;;;19.22;50.69
5522;BME280;2783;48.730;8.006;2023-03-25T13:34:02;99598.41;;;19.90;50.89
5522;BME280;2783;48.730;8.006;2023-03-25T13:36:40;99598.38;;;20.35;48.68
5522;BME280;2783;48.730;8.006;2023-03-25T13:39:29;99597.75;;;19.75;47.27
5522;BME280;2783;48.730;8.006;2023-03-25T13:42:05;99607.34;;;18.96;49.98
5522;BME280;2783;48.730;8.006;2023-03-25T13:44:36;99610.66;;;18.51;51.78
5522;BME280;2783;48.730;8.006;2023-03-25T13:47:07;99606.31;;;18.35;52.94
5522;BME280;2783;48.730;8.006;2023-03-25T13:49:40;99601.78;;;18.74;50.28
5522;BME280;2783;48.730;8.006;2023-03-25T13:52:08;99601.06;;;18.59;49.83
5522;BME280;2783;48.730;8.006;2023-03-25T13:57:06;99606.34;;;18.61;48.43
5522;BME280;2783;48.730;8.006;2023-03-25T13:59:41;99618.78;;;18.87;43.88
5522;BME280;2783;48.730;8.006;2023-03-25T14:02:23;99609.63;;;19.13;44.25
5522;BME280;2783;48.730;8.006;2023-03-25T14:07:55;99602.78;;;19.56;43.03
5522;BME280;2783;48.730;8.006;2023-03-25T14:13:11;99600.50;;;19.39;43.31
5522;BME280;2783;48.730;8.006;2023-03-25T14:15:39;99602.94;;;19.18;42.64
5522;BME280;2783;48.730;8.006;2023-03-25T14:18:10;99603.81;;;18.83;44.48
5522;BME280;2783;48.730;8.006;2023-03-25T14:20:38;99607.09;;;18.25;45.57
5522;BME280;2783;48.730;8.006;2023-03-25T14:23:05;99603.72;;;17.84;45.56
5522;BME280;2783;48.730;8.006;2023-03-25T14:25:32;99610.91;;;17.44;47.81
5522;BME280;2783;48.730;8.006;2023-03-25T14:27:59;99615.75;;;17.25;47.95
5522;BME280;2783;48.730;8.006;2023-03-25T14:30:26;99624.13;;;16.80;47.17
5522;BME280;2783;48.730;8.006;2023-03-25T14:32:55;99626.16;;;16.62;48.11
5522;BME280;2783;48.730;8.006;2023-03-25T14:38:10;99628.25;;;16.57;49.56
5522;BME280;2783;48.730;8.006;2023-03-25T14:43:25;99608.31;;;16.61;51.59
5522;BME280;2783;48.730;8.006;2023-03-25T14:46:00;99607.25;;;16.64;52.15
5522;BME280;2783;48.730;8.006;2023-03-25T14:48:31;99602.66;;;16.66;52.85
5522;BME280;2783;48.730;8.006;2023-03-25T14:51:58;99589.06;;;16.55;52.77
5522;BME280;2783;48.730;8.006;2023-03-25T14:53:59;99609.19;;;16.48;51.85
5522;BME280;2783;48.730;8.006;2023-03-25T14:56:33;99614.94;;;16.56;52.59
5522;BME280;2783;48.730;8.006;2023-03-25T14:58:59;99607.03;;;16.81;51.17
5522;BME280;2783;48.730;8.006;2023-03-25T15:01:33;99598.38;;;17.31;51.55
5522;BME280;2783;48.730;8.006;2023-03-25T15:07:00;99593.13;;;17.56;51.09
5522;BME280;2783;48.730;8.006;2023-03-25T15:09:26;99594.00;;;17.69;50.88
5522;BME280;2783;48.730;8.006;2023-03-25T15:11:57;99602.97;;;17.29;47.10
5522;BME280;2783;48.730;8.006;2023-03-25T15:14:32;99598.72;;;17.12;48.25
5522;BME280;2783;48.730;8.006;2023-03-25T15:17:03;99603.38;;;16.82;47.11
5522;BME280;2783;48.730;8.006;2023-03-25T15:19:46;99592.38;;;16.72;50.10
5522;BME280;2783;48.730;8.006;2023-03-25T15:22:18;99597.56;;;16.75;50.70
5522;BME280;2783;48.730;8.006;2023-03-25T15:24:46;99584.06;;;16.63;48.71
5522;BME280;2783;48.730;8.006;2023-03-25T15:27:23;99584.25;;;16.60;49.37
5522;BME280;2783;48.730;8.006;2023-03-25T15:35:09;99586.81;;;16.33;49.90
5522;BME280;2783;48.730;8.006;2023-03-25T15:43:05;99601.06;;;15.92;51.59
5522;BME280;2783;48.730;8.006;2023-03-25T15:55:54;99594.00;;;15.91;50.66
5522;BME280;2783;48.730;8.006;2023-03-25T15:58:23;99589.66;;;15.88;51.06
5522;BME280;2783;48.730;8.006;2023-03-25T16:00:51;99588.03;;;15.86;51.72
5522;BME280;2783;48.730;8.006;2023-03-25T16:03:18;99587.84;;;15.74;50.72
5522;BME280;2783;48.730;8.006;2023-03-25T16:05:52;99593.19;;;15.74;50.80